sensor_id;sensor_type;location;lat;lon;timestamp;temperature;humidity
17843;DHT22;69286;48.222;16.332;2023-04-25T00:00:49;11.60;83.00
17843;DHT22;69286;48.222;16.332;2023-04-25T00:03:18;11.70;83.20
17843;DHT22;69286;48.222;16.332;2023-04-25T00:05:46;11.60;82.60
17843;DHT22;69286;48.222;16.332;2023-04-25T00:08:13;11.70;82.70
17843;DHT22;69286;48.222;16.332;2023-04-25T00:10:40;11.70;82.80
17843;DHT22;69286;48.222;16.332;2023-04-25T00:13:07;11.70;83.00
17843;DHT22;69286;48.222;16.332;2023-04-25T00:15:34;11.70;83.00
17843;DHT22;69286;48.222;16.332;2023-04-25T00:18:03;11.60;82.80
17843;DHT22;69286;48.222;16.332;2023-04-25T00:20:31;11.60;82.80
17843;DHT22;69286;48.222;16.332;2023-04-25T00:22:59;11.70;83.10
17843;DHT22;69286;48.222;16.332;2023-04-25T00:25:26;11.70;82.60
17843;DHT22;69286;48.222;16.332;2023-04-25T00:27:53;11.70;82.60
17843;DHT22;69286;48.222;16.332;2023-04-25T00:30:20;11.70;82.50
17843;DHT22;69286;48.222;16.332;2023-04-25T00:32:47;11.60;82.50
17843;DHT22;69286;48.222;16.332;2023-04-25T00:35:14;11.60;82.40
17843;DHT22;69286;48.222;16.332;2023-04-25T00:37:41;11.60;82.70
17843;DHT22;69286;48.222;16.332;2023-04-25T00:40:10;11.60;82.50
17843;DHT22;69286;48.222;16.332;2023-04-25T00:42:37;11.60;82.30
17843;DHT22;69286;48.222;16.332;2023-04-25T00:45:06;11.50;82.60
17843;DHT22;69286;48.222;16.332;2023-04-25T00:47:33;11.50;83.10
17843;DHT22;69286;48.222;16.332;2023-04-25T00:50:02;11.50;83.20
17843;DHT22;69286;48.222;16.332;2023-04-25T00:52:29;11.50;83.10
17843;DHT22;69286;48.222;16.332;2023-04-25T00:54:56;11.50;83.10
17843;DHT22;69286;48.222;16.332;2023-04-25T00:57:24;11.50;83.40
17843;DHT22;69286;48.222;16.332;2023-04-25T00:59:53;11.50;82.80
17843;DHT22;69286;48.222;16.332;2023-04-25T01:02:20;11.40;82.80
17843;DHT22;69286;48.222;16.332;2023-04-25T01:04:48;11.40;83.20
17843;DHT22;69286;48.222;16.332;2023-04-25T01:07:15;11.40;83.20
17843;DHT22;69286;48.222;16.332;2023-04-25T01:09:42;11.30;83.70
17843;DHT22;69286;48.222;16.332;2023-04-25T01:12:09;11.40;83.80
17843;DHT22;69286;48.222;16.332;2023-04-25T01:14:38;11.30;83.40
17843;DHT22;69286;48.222;16.332;2023-04-25T01:17:05;11.40;83.70
17843;DHT22;69286;48.222;16.332;2023-04-25T01:19:33;11.40;84.40
17843;DHT22;69286;48.222;16.332;2023-04-25T01:22:02;11.40;84.20
17843;DHT22;69286;48.222;16.332;2023-04-25T01:24:30;11.40;83.70
17843;DHT22;69286;48.222;16.332;2023-04-25T01:26:57;11.40;83.90
17843;DHT22;69286;48.222;16.332;2023-04-25T01:29:26;11.30;83.70
17843;DHT22;69286;48.222;16.332;2023-04-25T01:31:54;11.30;83.70
17843;DHT22;69286;48.222;16.332;2023-04-25T01:34:22;11.30;83.60
17843;DHT22;69286;48.222;16.332;2023-04-25T01:36:49;11.30;83.60
17843;DHT22;69286;48.222;16.332;2023-04-25T01:39:18;11.30;83.30
17843;DHT22;69286;48.222;16.332;2023-04-25T01:41:45;11.30;82.90
17843;DHT22;69286;48.222;16.332;2023-04-25T01:44:12;11.30;82.10
17843;DHT22;69286;48.222;16.332;2023-04-25T01:46:39;11.30;81.80
17843;DHT22;69286;48.222;16.332;2023-04-25T01:49:06;11.40;81.80
17843;DHT22;69286;48.222;16.332;2023-04-25T01:51:34;11.30;81.80
17843;DHT22;69286;48.222;16.332;2023-04-25T01:54:01;11.30;81.80
17843;DHT22;69286;48.222;16.332;2023-04-25T01:56:32;11.30;81.70
17843;DHT22;69286;48.222;16.332;2023-04-25T01:58:59;11.30;81.60
17843;DHT22;69286;48.222;16.332;2023-04-25T02:01:26;11.40;81.20
17843;DHT22;69286;48.222;16.332;2023-04-25T02:03:53;11.40;81.20
17843;DHT22;69286;48.222;16.332;2023-04-25T02:06:20;11.40;80.90
17843;DHT22;69286;48.222;16.332;2023-04-25T02:08:47;11.40;81.20
17843;DHT22;69286;48.222;16.332;2023-04-25T02:11:14;11.30;80.90
17843;DHT22;69286;48.222;16.332;2023-04-25T02:13:42;11.30;80.80
17843;DHT22;69286;48.222;16.332;2023-04-25T02:16:09;11.30;81.10
17843;DHT22;69286;48.222;16.332;2023-04-25T02:18:36;11.30;81.70
17843;DHT22;69286;48.222;16.332;2023-04-25T02:21:04;11.30;82.10
17843;DHT22;69286;48.222;16.332;2023-04-25T02:23:31;11.20;82.20
17843;DHT22;69286;48.222;16.332;2023-04-25T02:25:58;11.20;82.80
17843;DHT22;69286;48.222;16.332;2023-04-25T02:28:25;11.20;82.90
17843;DHT22;69286;48.222;16.332;2023-04-25T02:30:54;11.20;82.90
17843;DHT22;69286;48.222;16.332;2023-04-25T02:33:21;11.10;83.20
17843;DHT22;69286;48.222;16.332;2023-04-25T02:35:48;11.10;83.70
17843;DHT22;69286;48.222;16.332;2023-04-25T02:38:15;11.10;83.70
17843;DHT22;69286;48.222;16.332;2023-04-25T02:40:41;11.10;83.90
17843;DHT22;69286;48.222;16.332;2023-04-25T02:43:08;11.10;84.10
17843;DHT22;69286;48.222;16.332;2023-04-25T02:45:35;11.10;84.20
17843;DHT22;69286;48.222;16.332;2023-04-25T02:48:05;11.10;84.50
17843;DHT22;69286;48.222;16.332;2023-04-25T02:50:32;11.10;84.30
17843;DHT22;69286;48.222;16.332;2023-04-25T02:52:59;11.10;84.50
17843;DHT22;69286;48.222;16.332;2023-04-25T02:55:26;11.00;84.90
17843;DHT22;69286;48.222;16.332;2023-04-25T02:57:53;10.90;85.30
17843;DHT22;69286;48.222;16.332;2023-04-25T03:00:21;10.90;84.90
17843;DHT22;69286;48.222;16.332;2023-04-25T03:02:49;10.90;84.80
17843;DHT22;69286;48.222;16.332;2023-04-25T03:05:18;10.90;85.00
17843;DHT22;69286;48.222;16.332;2023-04-25T03:07:45;10.90;85.10
17843;DHT22;69286;48.222;16.332;2023-04-25T03:10:12;10.90;85.40
17843;DHT22;69286;48.222;16.332;2023-04-25T03:12:39;10.80;85.20
17843;DHT22;69286;48.222;16.332;2023-04-25T03:15:06;10.80;85.30
17843;DHT22;69286;48.222;16.332;2023-04-25T03:17:34;10.90;85.10
17843;DHT22;69286;48.222;16.332;2023-04-25T03:20:01;10.80;85.20
17843;DHT22;69286;48.222;16.332;2023-04-25T03:22:31;10.80;85.40
17843;DHT22;69286;48.222;16.332;2023-04-25T03:24:58;10.80;85.20
17843;DHT22;69286;48.222;16.332;2023-04-25T03:27:24;10.80;85.40
17843;DHT22;69286;48.222;16.332;2023-04-25T03:29:51;10.80;85.60
17843;DHT22;69286;48.222;16.332;2023-04-25T03:32:18;10.70;85.70
17843;DHT22;69286;48.222;16.332;2023-04-25T03:34:45;10.70;85.80
17843;DHT22;69286;48.222;16.332;2023-04-25T03:37:12;10.70;86.10
17843;DHT22;69286;48.222;16.332;2023-04-25T03:39:41;10.70;85.90
17843;DHT22;69286;48.222;16.332;2023-04-25T03:42:08;10.80;85.50
17843;DHT22;69286;48.222;16.332;2023-04-25T03:44:35;10.70;85.30
17843;DHT22;69286;48.222;16.332;2023-04-25T03:47:01;10.70;85.80
17843;DHT22;69286;48.222;16.332;2023-04-25T03:49:28;10.60;86.40
17843;DHT22;69286;48.222;16.332;2023-04-25T03:51:55;10.60;86.30
17843;DHT22;69286;48.222;16.332;2023-04-25T03:54:22;10.50;86.20
17843;DHT22;69286;48.222;16.332;2023-04-25T03:56:51;10.50;86.20
17843;DHT22;69286;48.222;16.332;2023-04-25T03:59:18;10.50;85.80
17843;DHT22;69286;48.222;16.332;2023-04-25T04:01:45;10.50;85.60
17843;DHT22;69286;48.222;16.332;2023-04-25T04:04:12;10.60;85.60
17843;DHT22;69286;48.222;16.332;2023-04-25T04:06:39;10.50;85.60
17843;DHT22;69286;48.222;16.332;2023-04-25T04:09:06;10.50;85.00
17843;DHT22;69286;48.222;16.332;2023-04-25T04:11:36;10.50;85.30
17843;DHT22;69286;48.222;16.332;2023-04-25T04:14:05;10.40;85.10
17843;DHT22;69286;48.222;16.332;2023-04-25T04:16:32;10.50;84.80
17843;DHT22;69286;48.222;16.332;2023-04-25T04:18:59;10.50;85.10
17843;DHT22;69286;48.222;16.332;2023-04-25T04:21:26;10.40;85.10
17843;DHT22;69286;48.222;16.332;2023-04-25T04:23:54;10.40;85.20
17843;DHT22;69286;48.222;16.332;2023-04-25T04:26:23;10.40;85.20
17843;DHT22;69286;48.222;16.332;2023-04-25T04:28:51;10.40;85.30
17843;DHT22;69286;48.222;16.332;2023-04-25T04:31:21;10.40;85.00
17843;DHT22;69286;48.222;16.332;2023-04-25T04:33:48;10.40;86.30
17843;DHT22;69286;48.222;16.332;2023-04-25T04:36:15;10.40;86.70
17843;DHT22;69286;48.222;16.332;2023-04-25T04:38:45;10.40;86.20
17843;DHT22;69286;48.222;16.332;2023-04-25T04:41:12;10.40;85.60
17843;DHT22;69286;48.222;16.332;2023-04-25T04:43:39;10.40;85.60
17843;DHT22;69286;48.222;16.332;2023-04-25T04:46:06;10.40;85.40
17843;DHT22;69286;48.222;16.332;2023-04-25T04:48:34;10.40;84.70
17843;DHT22;69286;48.222;16.332;2023-04-25T04:51:01;10.40;84.30
17843;DHT22;69286;48.222;16.332;2023-04-25T04:53:28;10.40;84.30
17843;DHT22;69286;48.222;16.332;2023-04-25T04:55:55;10.30;84.60
17843;DHT22;69286;48.222;16.332;2023-04-25T04:58:22;10.30;84.30
17843;DHT22;69286;48.222;16.332;2023-04-25T05:00:49;10.30;83.80
17843;DHT22;69286;48.222;16.332;2023-04-25T05:03:16;10.30;83.60
17843;DHT22;69286;48.222;16.332;2023-04-25T05:05:44;10.40;83.70
17843;DHT22;69286;48.222;16.332;2023-04-25T05:08:11;10.40;83.40
17843;DHT22;69286;48.222;16.332;2023-04-25T05:10:38;10.40;83.40
17843;DHT22;69286;48.222;16.332;2023-04-25T05:13:05;10.40;83.40
17843;DHT22;69286;48.222;16.332;2023-04-25T05:15:32;10.40;83.40
17843;DHT22;69286;48.222;16.332;2023-04-25T05:17:59;10.40;83.30
17843;DHT22;69286;48.222;16.332;2023-04-25T05:20:27;10.40;83.30
17843;DHT22;69286;48.222;16.332;2023-04-25T05:22:55;10.40;83.70
17843;DHT22;69286;48.222;16.332;2023-04-25T05:25:22;10.40;83.50
17843;DHT22;69286;48.222;16.332;2023-04-25T05:27:49;10.50;84.30
17843;DHT22;69286;48.222;16.332;2023-04-25T05:30:16;10.50;83.40
17843;DHT22;69286;48.222;16.332;2023-04-25T05:32:43;10.60;83.80
17843;DHT22;69286;48.222;16.332;2023-04-25T05:35:12;10.80;83.20
17843;DHT22;69286;48.222;16.332;2023-04-25T05:37:39;11.20;81.70
17843;DHT22;69286;48.222;16.332;2023-04-25T05:40:08;11.60;80.30
17843;DHT22;69286;48.222;16.332;2023-04-25T05:42:35;12.10;78.30
17843;DHT22;69286;48.222;16.332;2023-04-25T05:45:02;12.50;76.10
17843;DHT22;69286;48.222;16.332;2023-04-25T05:47:30;13.00;73.50
17843;DHT22;69286;48.222;16.332;2023-04-25T05:49:56;13.50;72.10
17843;DHT22;69286;48.222;16.332;2023-04-25T05:52:23;14.10;68.90
17843;DHT22;69286;48.222;16.332;2023-04-25T05:54:50;14.50;66.70
17843;DHT22;69286;48.222;16.332;2023-04-25T05:57:23;14.90;65.40
17843;DHT22;69286;48.222;16.332;2023-04-25T05:59:50;15.40;63.10
17843;DHT22;69286;48.222;16.332;2023-04-25T06:02:17;15.70;61.60
17843;DHT22;69286;48.222;16.332;2023-04-25T06:04:44;16.00;60.10
17843;DHT22;69286;48.222;16.332;2023-04-25T06:07:11;16.00;59.20
17843;DHT22;69286;48.222;16.332;2023-04-25T06:09:38;16.40;58.70
17843;DHT22;69286;48.222;16.332;2023-04-25T06:12:06;16.60;57.50
17843;DHT22;69286;48.222;16.332;2023-04-25T06:14:34;17.10;55.90
17843;DHT22;69286;48.222;16.332;2023-04-25T06:17:02;17.10;54.70
17843;DHT22;69286;48.222;16.332;2023-04-25T06:19:32;17.50;54.30
17843;DHT22;69286;48.222;16.332;2023-04-25T06:21:59;17.50;54.80
17843;DHT22;69286;48.222;16.332;2023-04-25T06:24:26;17.80;54.10
17843;DHT22;69286;48.222;16.332;2023-04-25T06:26:53;18.00;53.40
17843;DHT22;69286;48.222;16.332;2023-04-25T06:29:20;18.20;52.60
17843;DHT22;69286;48.222;16.332;2023-04-25T06:31:48;18.40;51.70
17843;DHT22;69286;48.222;16.332;2023-04-25T06:34:15;18.60;50.80
17843;DHT22;69286;48.222;16.332;2023-04-25T06:36:43;18.70;50.50
17843;DHT22;69286;48.222;16.332;2023-04-25T06:39:10;18.60;50.70
17843;DHT22;69286;48.222;16.332;2023-04-25T06:41:37;18.60;50.30
17843;DHT22;69286;48.222;16.332;2023-04-25T06:44:04;18.90;50.00
17843;DHT22;69286;48.222;16.332;2023-04-25T06:46:31;18.90;50.00
17843;DHT22;69286;48.222;16.332;2023-04-25T06:48:59;19.10;50.30
17843;DHT22;69286;48.222;16.332;2023-04-25T06:51:26;19.40;49.60
17843;DHT22;69286;48.222;16.332;2023-04-25T06:53:55;19.40;48.10
17843;DHT22;69286;48.222;16.332;2023-04-25T06:56:22;19.40;48.30
17843;DHT22;69286;48.222;16.332;2023-04-25T06:58:49;19.60;47.80
17843;DHT22;69286;48.222;16.332;2023-04-25T07:01:16;19.70;47.70
17843;DHT22;69286;48.222;16.332;2023-04-25T07:03:43;19.90;47.80
17843;DHT22;69286;48.222;16.332;2023-04-25T07:06:12;20.10;47.30
17843;DHT22;69286;48.222;16.332;2023-04-25T07:08:39;20.10;47.20
17843;DHT22;69286;48.222;16.332;2023-04-25T07:11:06;20.20;47.20
17843;DHT22;69286;48.222;16.332;2023-04-25T07:13:33;20.30;47.20
17843;DHT22;69286;48.222;16.332;2023-04-25T07:16:00;20.40;46.50
17843;DHT22;69286;48.222;16.332;2023-04-25T07:18:27;20.40;46.40
17843;DHT22;69286;48.222;16.332;2023-04-25T07:20:53;20.30;46.40
17843;DHT22;69286;48.222;16.332;2023-04-25T07:23:25;20.70;46.40
17843;DHT22;69286;48.222;16.332;2023-04-25T07:25:51;20.70;45.80
17843;DHT22;69286;48.222;16.332;2023-04-25T07:28:18;20.60;45.70
17843;DHT22;69286;48.222;16.332;2023-04-25T07:30:45;20.90;45.70
17843;DHT22;69286;48.222;16.332;2023-04-25T07:33:12;21.10;45.70
17843;DHT22;69286;48.222;16.332;2023-04-25T07:35:40;21.40;45.30
17843;DHT22;69286;48.222;16.332;2023-04-25T07:38:07;21.50;44.60
17843;DHT22;69286;48.222;16.332;2023-04-25T07:40:37;21.60;44.00
17843;DHT22;69286;48.222;16.332;2023-04-25T07:43:04;21.80;43.80
17843;DHT22;69286;48.222;16.332;2023-04-25T07:45:31;21.80;43.60
17843;DHT22;69286;48.222;16.332;2023-04-25T07:47:58;21.90;43.40
17843;DHT22;69286;48.222;16.332;2023-04-25T07:50:25;21.90;43.40
17843;DHT22;69286;48.222;16.332;2023-04-25T07:52:52;22.20;43.00
17843;DHT22;69286;48.222;16.332;2023-04-25T07:55:19;22.40;43.00
17843;DHT22;69286;48.222;16.332;2023-04-25T07:57:47;22.60;42.50
17843;DHT22;69286;48.222;16.332;2023-04-25T08:00:15;22.80;42.20
17843;DHT22;69286;48.222;16.332;2023-04-25T08:02:42;23.00;41.90
17843;DHT22;69286;48.222;16.332;2023-04-25T08:05:09;23.20;41.50
17843;DHT22;69286;48.222;16.332;2023-04-25T08:07:39;23.50;41.50
17843;DHT22;69286;48.222;16.332;2023-04-25T08:10:08;24.10;40.70
17843;DHT22;69286;48.222;16.332;2023-04-25T08:12:35;24.30;40.20
17843;DHT22;69286;48.222;16.332;2023-04-25T08:15:04;24.10;40.10
17843;DHT22;69286;48.222;16.332;2023-04-25T08:17:32;24.20;39.90
17843;DHT22;69286;48.222;16.332;2023-04-25T08:19:59;24.00;40.60
17843;DHT22;69286;48.222;16.332;2023-04-25T08:22:26;24.30;39.40
17843;DHT22;69286;48.222;16.332;2023-04-25T08:24:52;24.70;39.10
17843;DHT22;69286;48.222;16.332;2023-04-25T08:27:19;24.50;39.20
17843;DHT22;69286;48.222;16.332;2023-04-25T08:29:47;24.50;39.00
17843;DHT22;69286;48.222;16.332;2023-04-25T08:32:16;23.90;39.80
17843;DHT22;69286;48.222;16.332;2023-04-25T08:34:43;23.80;40.30
17843;DHT22;69286;48.222;16.332;2023-04-25T08:37:10;24.60;39.30
17843;DHT22;69286;48.222;16.332;2023-04-25T08:39:37;25.50;37.60
17843;DHT22;69286;48.222;16.332;2023-04-25T08:42:06;26.00;37.20
17843;DHT22;69286;48.222;16.332;2023-04-25T08:44:34;26.50;36.70
17843;DHT22;69286;48.222;16.332;2023-04-25T08:47:02;27.60;36.00
17843;DHT22;69286;48.222;16.332;2023-04-25T08:49:32;28.50;34.70
17843;DHT22;69286;48.222;16.332;2023-04-25T08:52:01;28.90;33.50
17843;DHT22;69286;48.222;16.332;2023-04-25T08:54:30;28.40;33.10
17843;DHT22;69286;48.222;16.332;2023-04-25T08:57:01;27.10;34.20
17843;DHT22;69286;48.222;16.332;2023-04-25T08:59:30;26.40;35.90
17843;DHT22;69286;48.222;16.332;2023-04-25T09:01:57;25.20;37.40
17843;DHT22;69286;48.222;16.332;2023-04-25T09:04:24;24.00;39.80
17843;DHT22;69286;48.222;16.332;2023-04-25T09:06:53;23.50;41.00
17843;DHT22;69286;48.222;16.332;2023-04-25T09:09:19;22.70;42.30
17843;DHT22;69286;48.222;16.332;2023-04-25T09:11:47;22.10;42.60
17843;DHT22;69286;48.222;16.332;2023-04-25T09:14:15;21.60;43.80
17843;DHT22;69286;48.222;16.332;2023-04-25T09:16:58;21.00;45.00
17843;DHT22;69286;48.222;16.332;2023-04-25T09:19:28;20.60;46.80
17843;DHT22;69286;48.222;16.332;2023-04-25T09:21:57;20.50;47.00
17843;DHT22;69286;48.222;16.332;2023-04-25T09:24:35;20.00;47.30
17843;DHT22;69286;48.222;16.332;2023-04-25T09:27:04;19.90;47.20
17843;DHT22;69286;48.222;16.332;2023-04-25T09:29:32;19.70;47.10
17843;DHT22;69286;48.222;16.332;2023-04-25T09:32:15;19.40;47.70
17843;DHT22;69286;48.222;16.332;2023-04-25T09:34:43;19.20;50.50
17843;DHT22;69286;48.222;16.332;2023-04-25T09:37:17;18.80;54.20
17843;DHT22;69286;48.222;16.332;2023-04-25T09:39:46;18.40;56.40
17843;DHT22;69286;48.222;16.332;2023-04-25T09:42:13;18.30;57.60
17843;DHT22;69286;48.222;16.332;2023-04-25T09:44:44;18.20;58.30
17843;DHT22;69286;48.222;16.332;2023-04-25T09:47:12;18.30;57.50
17843;DHT22;69286;48.222;16.332;2023-04-25T09:49:41;18.30;57.00
17843;DHT22;69286;48.222;16.332;2023-04-25T09:52:10;18.10;54.20
17843;DHT22;69286;48.222;16.332;2023-04-25T09:54:41;18.10;54.70
17843;DHT22;69286;48.222;16.332;2023-04-25T09:57:11;19.50;52.10
17843;DHT22;69286;48.222;16.332;2023-04-25T09:59:43;20.50;51.10
17843;DHT22;69286;48.222;16.332;2023-04-25T10:02:11;21.00;48.30
17843;DHT22;69286;48.222;16.332;2023-04-25T10:04:38;21.00;46.90
17843;DHT22;69286;48.222;16.332;2023-04-25T10:07:07;20.80;45.70
17843;DHT22;69286;48.222;16.332;2023-04-25T10:09:37;20.30;46.70
17843;DHT22;69286;48.222;16.332;2023-04-25T10:12:06;20.00;47.00
17843;DHT22;69286;48.222;16.332;2023-04-25T10:14:35;20.10;47.90
17843;DHT22;69286;48.222;16.332;2023-04-25T10:17:02;19.90;46.90
17843;DHT22;69286;48.222;16.332;2023-04-25T10:19:29;20.10;46.90
17843;DHT22;69286;48.222;16.332;2023-04-25T10:22:05;20.30;46.40
17843;DHT22;69286;48.222;16.332;2023-04-25T10:24:35;20.40;46.10
17843;DHT22;69286;48.222;16.332;2023-04-25T10:27:02;20.50;45.70
17843;DHT22;69286;48.222;16.332;2023-04-25T10:29:31;20.30;46.20
17843;DHT22;69286;48.222;16.332;2023-04-25T10:31:58;20.20;47.30
17843;DHT22;69286;48.222;16.332;2023-04-25T10:34:37;20.20;48.40
17843;DHT22;69286;48.222;16.332;2023-04-25T10:37:05;20.20;47.20
17843;DHT22;69286;48.222;16.332;2023-04-25T10:39:33;20.00;47.20
17843;DHT22;69286;48.222;16.332;2023-04-25T10:42:02;19.70;48.10
17843;DHT22;69286;48.222;16.332;2023-04-25T10:44:31;19.50;48.50
17843;DHT22;69286;48.222;16.332;2023-04-25T10:46:59;19.40;48.40
17843;DHT22;69286;48.222;16.332;2023-04-25T10:49:31;19.40;48.10
17843;DHT22;69286;48.222;16.332;2023-04-25T10:52:17;19.70;47.80
17843;DHT22;69286;48.222;16.332;2023-04-25T10:54:47;20.10;46.50
17843;DHT22;69286;48.222;16.332;2023-04-25T10:57:32;20.50;45.70
17843;DHT22;69286;48.222;16.332;2023-04-25T11:00:08;20.60;45.20
17843;DHT22;69286;48.222;16.332;2023-04-25T11:02:43;20.70;45.60
17843;DHT22;69286;48.222;16.332;2023-04-25T11:05:10;20.90;45.10
17843;DHT22;69286;48.222;16.332;2023-04-25T11:07:49;20.90;45.30
17843;DHT22;69286;48.222;16.332;2023-04-25T11:10:17;20.60;44.70
17843;DHT22;69286;48.222;16.332;2023-04-25T11:12:47;20.60;44.70
17843;DHT22;69286;48.222;16.332;2023-04-25T11:15:16;20.60;44.50
17843;DHT22;69286;48.222;16.332;2023-04-25T11:17:43;20.50;44.90
17843;DHT22;69286;48.222;16.332;2023-04-25T11:20:12;20.40;44.60
17843;DHT22;69286;48.222;16.332;2023-04-25T11:22:41;20.50;44.20
17843;DHT22;69286;48.222;16.332;2023-04-25T11:25:12;20.60;44.80
17843;DHT22;69286;48.222;16.332;2023-04-25T11:27:49;20.70;43.40
17843;DHT22;69286;48.222;16.332;2023-04-25T11:30:19;20.30;44.70
17843;DHT22;69286;48.222;16.332;2023-04-25T11:32:47;20.00;47.40
17843;DHT22;69286;48.222;16.332;2023-04-25T11:35:14;19.40;51.40
17843;DHT22;69286;48.222;16.332;2023-04-25T11:37:42;19.20;52.60
17843;DHT22;69286;48.222;16.332;2023-04-25T11:40:10;18.60;53.10
17843;DHT22;69286;48.222;16.332;2023-04-25T11:42:38;18.10;53.90
17843;DHT22;69286;48.222;16.332;2023-04-25T11:45:06;17.40;56.20
17843;DHT22;69286;48.222;16.332;2023-04-25T11:47:35;16.90;57.50
17843;DHT22;69286;48.222;16.332;2023-04-25T11:50:03;16.70;57.60
17843;DHT22;69286;48.222;16.332;2023-04-25T11:52:38;16.50;57.50
17843;DHT22;69286;48.222;16.332;2023-04-25T11:55:07;16.20;58.00
17843;DHT22;69286;48.222;16.332;2023-04-25T11:57:34;16.20;58.40
17843;DHT22;69286;48.222;16.332;2023-04-25T12:00:07;16.20;58.50
17843;DHT22;69286;48.222;16.332;2023-04-25T12:02:37;16.10;57.40
17843;DHT22;69286;48.222;16.332;2023-04-25T12:05:06;16.10;56.90
17843;DHT22;69286;48.222;16.332;2023-04-25T12:07:35;16.20;57.10
17843;DHT22;69286;48.222;16.332;2023-04-25T12:10:07;16.50;57.20
17843;DHT22;69286;48.222;16.332;2023-04-25T12:12:35;16.60;57.10
17843;DHT22;69286;48.222;16.332;2023-04-25T12:15:12;16.90;56.40
17843;DHT22;69286;48.222;16.332;2023-04-25T12:17:44;17.00;56.10
17843;DHT22;69286;48.222;16.332;2023-04-25T12:20:13;17.10;56.40
17843;DHT22;69286;48.222;16.332;2023-04-25T12:22:41;17.20;56.40
17843;DHT22;69286;48.222;16.332;2023-04-25T12:25:11;17.30;56.30
17843;DHT22;69286;48.222;16.332;2023-04-25T12:27:38;17.30;54.80
17843;DHT22;69286;48.222;16.332;2023-04-25T12:30:08;17.30;54.60
17843;DHT22;69286;48.222;16.332;2023-04-25T12:32:36;17.20;54.20
17843;DHT22;69286;48.222;16.332;2023-04-25T12:35:06;17.20;54.00
17843;DHT22;69286;48.222;16.332;2023-04-25T12:37:33;17.20;53.70
17843;DHT22;69286;48.222;16.332;2023-04-25T12:40:00;17.10;53.50
17843;DHT22;69286;48.222;16.332;2023-04-25T12:42:27;17.20;52.60
17843;DHT22;69286;48.222;16.332;2023-04-25T12:44:54;17.30;52.20
17843;DHT22;69286;48.222;16.332;2023-04-25T12:47:21;17.20;52.40
17843;DHT22;69286;48.222;16.332;2023-04-25T12:49:48;17.30;51.70
17843;DHT22;69286;48.222;16.332;2023-04-25T12:52:16;17.40;51.20
17843;DHT22;69286;48.222;16.332;2023-04-25T12:54:44;17.40;51.50
17843;DHT22;69286;48.222;16.332;2023-04-25T12:57:10;17.30;52.10
17843;DHT22;69286;48.222;16.332;2023-04-25T12:59:38;17.30;52.20
17843;DHT22;69286;48.222;16.332;2023-04-25T13:02:05;17.20;52.60
17843;DHT22;69286;48.222;16.332;2023-04-25T13:04:32;17.20;52.90
17843;DHT22;69286;48.222;16.332;2023-04-25T13:06:59;17.30;52.10
17843;DHT22;69286;48.222;16.332;2023-04-25T13:09:30;17.30;51.50
17843;DHT22;69286;48.222;16.332;2023-04-25T13:11:57;17.30;50.40
17843;DHT22;69286;48.222;16.332;2023-04-25T13:14:25;17.30;50.60
17843;DHT22;69286;48.222;16.332;2023-04-25T13:16:52;17.40;50.50
17843;DHT22;69286;48.222;16.332;2023-04-25T13:19:20;17.40;50.30
17843;DHT22;69286;48.222;16.332;2023-04-25T13:21:47;17.50;50.10
17843;DHT22;69286;48.222;16.332;2023-04-25T13:24:14;17.60;50.10
17843;DHT22;69286;48.222;16.332;2023-04-25T13:26:43;17.80;49.50
17843;DHT22;69286;48.222;16.332;2023-04-25T13:29:10;17.80;48.90
17843;DHT22;69286;48.222;16.332;2023-04-25T13:31:37;17.70;48.70
17843;DHT22;69286;48.222;16.332;2023-04-25T13:34:04;17.70;49.00
17843;DHT22;69286;48.222;16.332;2023-04-25T13:36:31;17.70;48.30
17843;DHT22;69286;48.222;16.332;2023-04-25T13:38:59;17.70;47.60
17843;DHT22;69286;48.222;16.332;2023-04-25T13:41:26;17.60;48.30
17843;DHT22;69286;48.222;16.332;2023-04-25T13:43:54;17.70;48.80
17843;DHT22;69286;48.222;16.332;2023-04-25T13:46:21;17.60;48.50
17843;DHT22;69286;48.222;16.332;2023-04-25T13:48:48;17.60;48.90
17843;DHT22;69286;48.222;16.332;2023-04-25T13:51:16;17.60;47.40
17843;DHT22;69286;48.222;16.332;2023-04-25T13:53:46;17.60;48.80
17843;DHT22;69286;48.222;16.332;2023-04-25T13:56:13;17.60;49.80
17843;DHT22;69286;48.222;16.332;2023-04-25T13:58:40;17.60;50.40
17843;DHT22;69286;48.222;16.332;2023-04-25T14:01:08;17.60;50.60
17843;DHT22;69286;48.222;16.332;2023-04-25T14:03:35;17.40;50.40
17843;DHT22;69286;48.222;16.332;2023-04-25T14:06:03;17.20;50.90
17843;DHT22;69286;48.222;16.332;2023-04-25T14:08:30;17.20;51.00
17843;DHT22;69286;48.222;16.332;2023-04-25T14:10:57;17.10;51.00
17843;DHT22;69286;48.222;16.332;2023-04-25T14:13:24;17.10;51.40
17843;DHT22;69286;48.222;16.332;2023-04-25T14:15:51;17.20;51.50
17843;DHT22;69286;48.222;16.332;2023-04-25T14:18:19;17.10;51.40
17843;DHT22;69286;48.222;16.332;2023-04-25T14:20:46;17.10;51.70
17843;DHT22;69286;48.222;16.332;2023-04-25T14:23:13;17.00;51.70
17843;DHT22;69286;48.222;16.332;2023-04-25T14:25:40;17.00;52.20
17843;DHT22;69286;48.222;16.332;2023-04-25T14:28:09;17.00;52.30
17843;DHT22;69286;48.222;16.332;2023-04-25T14:30:36;16.90;53.50
17843;DHT22;69286;48.222;16.332;2023-04-25T14:33:03;16.80;54.00
17843;DHT22;69286;48.222;16.332;2023-04-25T14:35:32;16.70;54.50
17843;DHT22;69286;48.222;16.332;2023-04-25T14:37:59;16.50;55.50
17843;DHT22;69286;48.222;16.332;2023-04-25T14:40:26;16.40;55.40
17843;DHT22;69286;48.222;16.332;2023-04-25T14:42:53;16.30;55.80
17843;DHT22;69286;48.222;16.332;2023-04-25T14:45:20;16.30;55.60
17843;DHT22;69286;48.222;16.332;2023-04-25T14:47:47;16.30;55.10
17843;DHT22;69286;48.222;16.332;2023-04-25T14:50:14;16.40;55.00
17843;DHT22;69286;48.222;16.332;2023-04-25T14:52:42;16.50;54.70
17843;DHT22;69286;48.222;16.332;2023-04-25T14:55:10;16.50;54.40
17843;DHT22;69286;48.222;16.332;2023-04-25T14:57:37;16.50;54.20
17843;DHT22;69286;48.222;16.332;2023-04-25T15:00:05;16.50;54.10
17843;DHT22;69286;48.222;16.332;2023-04-25T15:02:35;16.50;54.00
17843;DHT22;69286;48.222;16.332;2023-04-25T15:05:02;16.60;53.70
17843;DHT22;69286;48.222;16.332;2023-04-25T15:07:29;16.60;54.00
17843;DHT22;69286;48.222;16.332;2023-04-25T15:09:58;16.70;54.50
17843;DHT22;69286;48.222;16.332;2023-04-25T15:12:25;16.70;55.10
17843;DHT22;69286;48.222;16.332;2023-04-25T15:14:53;16.60;56.50
17843;DHT22;69286;48.222;16.332;2023-04-25T15:17:21;16.50;58.20
17843;DHT22;69286;48.222;16.332;2023-04-25T15:19:48;16.40;57.70